createdAt,value
2022-08-25T00:00:43.625Z,99623.00
2022-08-25T00:02:17.369Z,99620.00
2022-08-25T00:03:51.425Z,99616.00
2022-08-25T00:05:29.017Z,99617.00
2022-08-25T00:07:03.664Z,99620.00
2022-08-25T00:08:39.908Z,99620.00
2022-08-25T00:10:13.292Z,99620.00
2022-08-25T00:11:49.256Z,99614.00
2022-08-25T00:13:23.510Z,99611.00
2022-08-25T00:14:59.789Z,99618.00
2022-08-25T00:16:32.568Z,99615.00
2022-08-25T00:18:16.598Z,99625.00
2022-08-25T00:19:53.121Z,99616.00
2022-08-25T00:21:27.741Z,99619.00
2022-08-25T00:23:01.443Z,99620.00
2022-08-25T00:24:36.518Z,99623.00
2022-08-25T00:26:10.791Z,99620.00
2022-08-25T00:27:44.558Z,99613.00
2022-08-25T00:29:21.408Z,99613.00
2022-08-25T00:30:54.910Z,99615.00
2022-08-25T00:32:28.573Z,99622.00
2022-08-25T00:34:02.387Z,99613.00
2022-08-25T00:35:36.384Z,99615.00
2022-08-25T00:37:10.387Z,99620.00
2022-08-25T00:38:46.302Z,99622.00
2022-08-25T00:40:21.449Z,99617.00
2022-08-25T00:41:57.772Z,99611.00
2022-08-25T00:43:46.366Z,99617.00
2022-08-25T00:45:20.314Z,99610.00
2022-08-25T00:46:57.829Z,99622.00
2022-08-25T00:48:31.689Z,99618.00
2022-08-25T00:50:10.384Z,99616.00
2022-08-25T00:51:51.147Z,99621.00
2022-08-25T00:53:25.162Z,99620.00
2022-08-25T00:55:08.069Z,99622.00
2022-08-25T00:56:45.230Z,99620.00
2022-08-25T00:58:25.964Z,99613.00
2022-08-25T01:00:00.284Z,99617.00
2022-08-25T01:01:40.194Z,99620.00
2022-08-25T01:03:20.057Z,99618.00
2022-08-25T01:04:54.432Z,99620.00
2022-08-25T01:06:32.260Z,99620.00
2022-08-25T01:08:10.959Z,99617.00
2022-08-25T01:09:50.776Z,99617.00
2022-08-25T01:11:28.436Z,99618.00
2022-08-25T01:13:16.789Z,99614.00
2022-08-25T01:14:53.698Z,99621.00
2022-08-25T01:16:29.075Z,99614.00
2022-08-25T01:18:07.291Z,99609.00
2022-08-25T01:19:42.175Z,99605.00
2022-08-25T01:21:18.489Z,99614.00
2022-08-25T01:22:55.301Z,99608.00
2022-08-25T01:24:39.592Z,99615.00
2022-08-25T01:26:16.734Z,99617.00
2022-08-25T01:27:49.652Z,99614.00
2022-08-25T01:29:25.186Z,99617.00
2022-08-25T01:30:58.701Z,99626.00
2022-08-25T01:32:35.720Z,99611.00
2022-08-25T01:34:12.178Z,99621.00
2022-08-25T01:35:46.391Z,99617.00
2022-08-25T01:37:21.226Z,99620.00
2022-08-25T01:38:55.108Z,99620.00
2022-08-25T01:40:29.178Z,99620.00
2022-08-25T01:42:29.815Z,99622.00
2022-08-25T01:44:05.531Z,99626.00
2022-08-25T01:45:42.667Z,99625.00
2022-08-25T01:47:17.460Z,99620.00
2022-08-25T01:48:51.138Z,99611.00
2022-08-25T01:50:25.002Z,99614.00
2022-08-25T01:52:06.354Z,99622.00
2022-08-25T01:53:41.093Z,99608.00
2022-08-25T01:55:15.097Z,99611.00
2022-08-25T01:56:48.436Z,99615.00
2022-08-25T01:58:22.620Z,99615.00
2022-08-25T01:59:55.965Z,99616.00
2022-08-25T02:01:31.538Z,99609.00
2022-08-25T02:03:06.455Z,99612.00
2022-08-25T02:04:50.702Z,99614.00
2022-08-25T02:06:29.801Z,99615.00
2022-08-25T02:08:03.123Z,99607.00
2022-08-25T02:09:39.683Z,99613.00
2022-08-25T02:11:14.717Z,99615.00
2022-08-25T02:12:48.167Z,99612.00
2022-08-25T02:14:21.816Z,99609.00
2022-08-25T02:15:58.082Z,99605.00
2022-08-25T02:17:31.603Z,99605.00
2022-08-25T02:19:08.552Z,99612.00
2022-08-25T02:20:41.806Z,99604.00
2022-08-25T02:22:15.420Z,99610.00
2022-08-25T02:23:48.936Z,99604.00
2022-08-25T02:25:23.790Z,99599.00
2022-08-25T02:26:58.020Z,99611.00
2022-08-25T02:28:31.962Z,99605.00
2022-08-25T02:30:07.036Z,99611.00
2022-08-25T02:31:41.333Z,99613.00
2022-08-25T02:33:14.773Z,99612.00
2022-08-25T02:34:49.405Z,99602.00
2022-08-25T02:36:23.332Z,99620.00
2022-08-25T02:37:57.266Z,99612.00
2022-08-25T02:39:30.823Z,99615.00
2022-08-25T02:41:13.784Z,99617.00
2022-08-25T02:42:47.273Z,99610.00
2022-08-25T02:44:20.728Z,99614.00
2022-08-25T02:45:55.471Z,99616.00
2022-08-25T02:47:29.376Z,99615.00
2022-08-25T02:49:03.171Z,99609.00
2022-08-25T02:50:36.504Z,99605.00
2022-08-25T02:52:10.220Z,99609.00
2022-08-25T02:53:46.021Z,99613.00
2022-08-25T02:55:21.578Z,99607.00
2022-08-25T02:56:56.365Z,99600.00
2022-08-25T02:58:29.937Z,99603.00
2022-08-25T03:00:22.080Z,99598.00
2022-08-25T03:01:57.173Z,99593.00
2022-08-25T03:03:30.701Z,99605.00
2022-08-25T03:05:05.281Z,99599.00
2022-08-25T03:06:38.647Z,99595.00
2022-08-25T03:08:12.741Z,99600.00
2022-08-25T03:09:47.039Z,99595.00
2022-08-25T03:11:21.167Z,99596.00
2022-08-25T03:12:55.820Z,99588.00
2022-08-25T03:14:30.255Z,99591.00
2022-08-25T03:16:10.851Z,99593.00
2022-08-25T03:17:45.966Z,99591.00
2022-08-25T03:19:19.419Z,99583.00
2022-08-25T03:20:53.107Z,99584.00
2022-08-25T03:22:26.932Z,99582.00
2022-08-25T03:24:01.690Z,99576.00
2022-08-25T03:25:52.968Z,99572.00
2022-08-25T03:27:30.405Z,99562.00
2022-08-25T03:29:05.778Z,99573.00
2022-08-25T03:30:39.575Z,99569.00
2022-08-25T03:32:12.961Z,99566.00
2022-08-25T03:33:45.659Z,99564.00
2022-08-25T03:35:19.670Z,99551.00
2022-08-25T03:36:55.427Z,99563.00
2022-08-25T03:38:29.369Z,99565.00
2022-08-25T03:40:04.290Z,99563.00
2022-08-25T03:41:38.418Z,99561.00
2022-08-25T03:43:10.808Z,99562.00
2022-08-25T03:44:45.578Z,99557.00
2022-08-25T03:46:21.230Z,99550.00
2022-08-25T03:47:54.990Z,99560.00
2022-08-25T03:49:29.624Z,99554.00
2022-08-25T03:51:03.551Z,99548.00
2022-08-25T03:52:42.432Z,99555.00
2022-08-25T03:54:20.139Z,99564.00
2022-08-25T03:55:54.258Z,99552.00
2022-08-25T03:57:28.157Z,99552.00
2022-08-25T03:59:01.467Z,99553.00
2022-08-25T04:00:36.578Z,99555.00
2022-08-25T04:02:10.945Z,99560.00
2022-08-25T04:03:44.609Z,99544.00
2022-08-25T04:05:20.146Z,99549.00
2022-08-25T04:06:54.368Z,99548.00
2022-08-25T04:08:27.931Z,99543.00
2022-08-25T04:10:02.001Z,99548.00
2022-08-25T04:11:36.137Z,99548.00
2022-08-25T04:13:11.975Z,99547.00
2022-08-25T04:14:45.433Z,99555.00
2022-08-25T04:16:24.243Z,99556.00
2022-08-25T04:17:59.074Z,99547.00
2022-08-25T04:19:32.824Z,99547.00
2022-08-25T04:21:09.081Z,99550.00
2022-08-25T04:22:44.818Z,99543.00
2022-08-25T04:24:19.135Z,99535.00
2022-08-25T04:25:52.231Z,99531.00
2022-08-25T04:27:25.722Z,99548.00
2022-08-25T04:29:01.091Z,99535.00
2022-08-25T04:30:34.447Z,99533.00
2022-08-25T04:32:09.811Z,99527.00
2022-08-25T04:33:43.966Z,99527.00
2022-08-25T04:35:18.084Z,99527.00
2022-08-25T04:36:52.686Z,99529.00
2022-08-25T04:38:27.618Z,99531.00
2022-08-25T04:40:02.466Z,99529.00
2022-08-25T04:41:35.928Z,99523.00
2022-08-25T04:43:09.995Z,99514.00
2022-08-25T04:44:43.451Z,99512.00
2022-08-25T04:46:20.993Z,99518.00
2022-08-25T04:47:59.673Z,99513.00
2022-08-25T04:49:33.088Z,99515.00
2022-08-25T04:51:07.325Z,99514.00
2022-08-25T04:52:41.319Z,99516.00
2022-08-25T04:54:21.501Z,99511.00
2022-08-25T04:55:55.235Z,99511.00
2022-08-25T04:57:28.582Z,99516.00
2022-08-25T04:59:05.660Z,99527.00
2022-08-25T05:00:40.162Z,99524.00
2022-08-25T05:02:13.712Z,99526.00
2022-08-25T05:03:53.870Z,99531.00
2022-08-25T05:05:27.560Z,99527.00
2022-08-25T05:07:01.137Z,99525.00
2022-08-25T05:08:35.656Z,99528.00
2022-08-25T05:10:10.015Z,99515.00
2022-08-25T05:11:44.087Z,99519.00
2022-08-25T05:13:17.859Z,99527.00
2022-08-25T05:14:53.995Z,99525.00
2022-08-25T05:16:28.938Z,99520.00
2022-08-25T05:18:02.294Z,99520.00
2022-08-25T05:19:38.004Z,99515.00
2022-08-25T05:21:14.612Z,99518.00
2022-08-25T05:22:48.417Z,99526.00
2022-08-25T05:24:22.791Z,99517.00
2022-08-25T05:25:56.514Z,99523.00
2022-08-25T05:27:30.336Z,99516.00
2022-08-25T05:29:05.486Z,99512.00
2022-08-25T05:30:40.387Z,99508.00
2022-08-25T05:32:13.789Z,99511.00
2022-08-25T05:33:47.340Z,99510.00
2022-08-25T05:35:22.319Z,99506.00
2022-08-25T05:36:59.993Z,99509.00
2022-08-25T05:38:34.447Z,99502.00
2022-08-25T05:40:10.475Z,99510.00
2022-08-25T05:41:44.007Z,99508.00
2022-08-25T05:43:17.786Z,99506.00
2022-08-25T05:44:50.738Z,99507.00
2022-08-25T05:46:25.722Z,99504.00
2022-08-25T05:48:00.520Z,99508.00
2022-08-25T05:49:34.138Z,99508.00
2022-08-25T05:51:11.550Z,99506.00
2022-08-25T05:52:45.879Z,99501.00
2022-08-25T05:54:19.743Z,99503.00
2022-08-25T05:55:55.757Z,99499.00
2022-08-25T05:57:29.094Z,99492.00
2022-08-25T05:59:07.304Z,99493.00
2022-08-25T06:00:42.864Z,99497.00
2022-08-25T06:02:34.092Z,99494.00
2022-08-25T06:04:08.531Z,99485.00
2022-08-25T06:05:42.057Z,99490.00
2022-08-25T06:07:17.042Z,99494.00
2022-08-25T06:08:51.437Z,99485.00
2022-08-25T06:10:25.233Z,99484.00
2022-08-25T06:11:58.735Z,99479.00
2022-08-25T06:13:32.171Z,99476.00
2022-08-25T06:15:07.988Z,99484.00
2022-08-25T06:16:41.861Z,99487.00
2022-08-25T06:18:15.235Z,99478.00
2022-08-25T06:19:48.690Z,99488.00
2022-08-25T06:21:22.972Z,99487.00
2022-08-25T06:22:59.185Z,99488.00
2022-08-25T06:24:33.178Z,99486.00
2022-08-25T06:26:08.118Z,99489.00
2022-08-25T06:27:42.754Z,99480.00
2022-08-25T06:29:16.611Z,99487.00
2022-08-25T06:30:49.913Z,99481.00
2022-08-25T06:32:23.416Z,99487.00
2022-08-25T06:33:58.246Z,99488.00
2022-08-25T06:35:31.590Z,99489.00
2022-08-25T06:37:07.452Z,99493.00
2022-08-25T06:38:42.341Z,99496.00
2022-08-25T06:40:17.496Z,99500.00
2022-08-25T06:41:53.806Z,99503.00
2022-08-25T06:43:27.742Z,99497.00
2022-08-25T06:45:01.303Z,99501.00
2022-08-25T06:46:37.123Z,99496.00
2022-08-25T06:48:11.722Z,99486.00
2022-08-25T06:49:46.288Z,99489.00
2022-08-25T06:51:21.552Z,99484.00
2022-08-25T06:52:55.213Z,99484.00
2022-08-25T06:54:30.227Z,99476.00
2022-08-25T06:56:06.709Z,99483.00
2022-08-25T06:57:40.984Z,99491.00
2022-08-25T06:59:15.318Z,99490.00
2022-08-25T07:00:49.212Z,99485.00
2022-08-25T07:02:23.340Z,99486.00
2022-08-25T07:04:00.558Z,99496.00
2022-08-25T07:05:43.507Z,99501.00
2022-08-25T07:07:17.528Z,99490.00
2022-08-25T07:08:51.019Z,99494.00
2022-08-25T07:10:25.917Z,99492.00
2022-08-25T07:11:59.415Z,99491.00
2022-08-25T07:13:32.959Z,99484.00
2022-08-25T07:15:19.818Z,99487.00
2022-08-25T07:16:54.247Z,99484.00
2022-08-25T07:18:28.223Z,99488.00
2022-08-25T07:20:01.539Z,99481.00
2022-08-25T07:21:39.716Z,99482.00
2022-08-25T07:23:13.576Z,99485.00
2022-08-25T07:24:46.983Z,99480.00
2022-08-25T07:26:37.176Z,99489.00
2022-08-25T07:28:12.084Z,99484.00
2022-08-25T07:29:46.506Z,99489.00
2022-08-25T07:31:20.220Z,99486.00
2022-08-25T07:32:55.492Z,99483.00
2022-08-25T07:36:40.480Z,99490.00
2022-08-25T07:38:19.660Z,99480.00
2022-08-25T07:39:55.359Z,99478.00
2022-08-25T07:41:37.320Z,99480.00
2022-08-25T07:43:11.274Z,99477.00
2022-08-25T07:44:44.784Z,99477.00
2022-08-25T07:46:18.710Z,99479.00
2022-08-25T07:47:53.788Z,99479.00
2022-08-25T07:49:35.866Z,99472.00
2022-08-25T07:51:15.552Z,99478.00
2022-08-25T07:52:55.059Z,99474.00
2022-08-25T07:54:33.920Z,99476.00
2022-08-25T07:56:12.762Z,99471.00
2022-08-25T07:57:50.875Z,99477.00
2022-08-25T07:59:29.458Z,99478.00
2022-08-25T08:01:02.799Z,99475.00
2022-08-25T08:02:38.955Z,99462.00
2022-08-25T08:04:14.076Z,99468.00
2022-08-25T08:05:50.188Z,99469.00
2022-08-25T08:07:43.067Z,99469.00
2022-08-25T08:09:17.607Z,99474.00
2022-08-25T08:11:04.476Z,99468.00
2022-08-25T08:12:39.549Z,99465.00
2022-08-25T08:14:14.502Z,99465.00
2022-08-25T08:15:50.900Z,99469.00
2022-08-25T08:17:24.265Z,99471.00
2022-08-25T08:18:59.442Z,99479.00
2022-08-25T08:20:42.712Z,99478.00
2022-08-25T08:22:16.952Z,99475.00
2022-08-25T08:23:58.050Z,99478.00
2022-08-25T08:25:31.962Z,99482.00
2022-08-25T08:27:06.811Z,99477.00
2022-08-25T08:28:40.238Z,99477.00
2022-08-25T08:30:16.225Z,99484.00
2022-08-25T08:31:49.848Z,99482.00
2022-08-25T08:33:25.180Z,99481.00
2022-08-25T08:34:58.776Z,99473.00
2022-08-25T08:36:32.112Z,99469.00
2022-08-25T08:38:13.497Z,99477.00
2022-08-25T08:39:51.219Z,99477.00
2022-08-25T08:42:16.800Z,99468.00
2022-08-25T08:44:01.227Z,99468.00
2022-08-25T08:45:44.147Z,99477.00
2022-08-25T08:47:31.843Z,99467.00
2022-08-25T08:49:22.903Z,99465.00
2022-08-25T08:51:18.713Z,99462.00
2022-08-25T08:53:03.891Z,99464.00
2022-08-25T08:54:43.135Z,99458.00
2022-08-25T08:56:21.711Z,99451.00
2022-08-25T08:57:59.059Z,99453.00
2022-08-25T08:59:46.855Z,99464.00
2022-08-25T09:01:33.545Z,99452.00
2022-08-25T09:03:12.528Z,99450.00
2022-08-25T09:04:55.451Z,99454.00
2022-08-25T09:06:37.390Z,99458.00
2022-08-25T09:08:15.138Z,99454.00
2022-08-25T09:09:54.807Z,99450.00
2022-08-25T09:11:42.779Z,99443.00
2022-08-25T09:13:26.380Z,99445.00
2022-08-25T09:15:14.286Z,99439.00
2022-08-25T09:16:59.593Z,99447.00
2022-08-25T09:18:51.183Z,99442.00
2022-08-25T09:20:48.002Z,99448.00
2022-08-25T09:22:40.980Z,99447.00
2022-08-25T09:24:37.026Z,99440.00
2022-08-25T09:26:29.384Z,99436.00
2022-08-25T09:28:14.812Z,99434.00
2022-08-25T09:30:03.137Z,99443.00
2022-08-25T09:31:42.104Z,99433.00
2022-08-25T09:33:23.359Z,99437.00
2022-08-25T09:34:57.719Z,99441.00
2022-08-25T09:36:35.554Z,99433.00
2022-08-25T09:38:13.542Z,99430.00
2022-08-25T09:39:46.958Z,99435.00
2022-08-25T09:41:47.067Z,99420.00
2022-08-25T09:43:25.692Z,99413.00
2022-08-25T09:44:59.111Z,99430.00
2022-08-25T09:46:32.565Z,99428.00
2022-08-25T09:48:28.550Z,99419.00
2022-08-25T09:50:06.835Z,99422.00
2022-08-25T09:51:42.805Z,99419.00
2022-08-25T09:53:21.690Z,99413.00
2022-08-25T09:54:57.167Z,99414.00
2022-08-25T09:56:33.945Z,99410.00
2022-08-25T09:58:20.569Z,99411.00
2022-08-25T09:59:57.751Z,99402.00
2022-08-25T10:01:34.636Z,99400.00
2022-08-25T10:03:15.966Z,99399.00
2022-08-25T10:04:50.950Z,99399.00
2022-08-25T10:06:27.068Z,99404.00
2022-08-25T10:08:03.882Z,99395.00
2022-08-25T10:09:43.195Z,99396.00
2022-08-25T10:11:36.276Z,99388.00
2022-08-25T10:13:22.697Z,99375.00
2022-08-25T10:14:57.239Z,99378.00
2022-08-25T10:16:36.432Z,99377.00
2022-08-25T10:18:27.715Z,99384.00
2022-08-25T10:20:21.506Z,99380.00
2022-08-25T10:22:10.921Z,99380.00
2022-08-25T10:23:52.495Z,99378.00
2022-08-25T10:25:32.141Z,99370.00
2022-08-25T10:27:19.387Z,99370.00
2022-08-25T10:29:15.891Z,99369.00
2022-08-25T10:31:09.741Z,99361.00
2022-08-25T10:33:09.630Z,99362.00
2022-08-25T10:34:51.904Z,99366.00
2022-08-25T10:36:47.134Z,99361.00
2022-08-25T10:38:37.991Z,99359.00
2022-08-25T10:40:26.157Z,99348.00
2022-08-25T10:42:13.792Z,99350.00
2022-08-25T10:43:58.586Z,99351.00
2022-08-25T10:45:45.967Z,99359.00
2022-08-25T10:47:55.327Z,99361.00
2022-08-25T10:49:41.936Z,99355.00
2022-08-25T10:51:51.482Z,99354.00
2022-08-25T10:53:32.526Z,99354.00
2022-08-25T10:55:21.075Z,99346.00
2022-08-25T10:57:09.648Z,99341.00
2022-08-25T10:59:25.398Z,99337.00
2022-08-25T11:01:11.968Z,99332.00
2022-08-25T11:03:25.417Z,99333.00
2022-08-25T11:05:08.676Z,99332.00
2022-08-25T11:06:54.806Z,99327.00
2022-08-25T11:08:38.744Z,99333.00
2022-08-25T11:10:20.059Z,99321.00
2022-08-25T11:11:59.901Z,99322.00
2022-08-25T11:13:42.619Z,99328.00
2022-08-25T11:15:25.168Z,99333.00
2022-08-25T11:17:06.125Z,99331.00
2022-08-25T11:18:48.681Z,99331.00
2022-08-25T11:20:33.445Z,99325.00
2022-08-25T11:22:21.136Z,99326.00
2022-08-25T11:24:05.755Z,99333.00
2022-08-25T11:25:44.531Z,99330.00
2022-08-25T11:27:24.789Z,99325.00
2022-08-25T11:29:11.403Z,99323.00
2022-08-25T11:30:46.413Z,99322.00
2022-08-25T11:32:24.731Z,99314.00
2022-08-25T11:34:00.555Z,99316.00
2022-08-25T11:35:41.307Z,99319.00
2022-08-25T11:37:26.967Z,99323.00
2022-08-25T11:39:16.558Z,99321.00
2022-08-25T11:41:10.976Z,99328.00
2022-08-25T11:43:02.580Z,99326.00
2022-08-25T11:44:55.103Z,99325.00
2022-08-25T11:46:46.206Z,99326.00
2022-08-25T11:48:34.050Z,99326.00
2022-08-25T11:50:24.116Z,99316.00
2022-08-25T11:52:03.552Z,99319.00
2022-08-25T11:53:42.433Z,99320.00
2022-08-25T11:55:23.057Z,99326.00
2022-08-25T11:57:04.201Z,99326.00
2022-08-25T11:58:46.984Z,99316.00
2022-08-25T12:00:43.147Z,99317.00
2022-08-25T12:02:37.280Z,99320.00
2022-08-25T12:04:16.144Z,99315.00
2022-08-25T12:06:16.069Z,99316.00
2022-08-25T12:08:37.967Z,99315.00
2022-08-25T12:10:55.611Z,99316.00
2022-08-25T12:12:31.780Z,99314.00
2022-08-25T12:14:37.031Z,99310.00
2022-08-25T12:16:44.544Z,99314.00
2022-08-25T12:18:45.921Z,99314.00
2022-08-25T12:20:19.803Z,99299.00
2022-08-25T12:21:55.759Z,99294.00
2022-08-25T12:23:32.590Z,99294.00
2022-08-25T12:25:20.862Z,99285.00
2022-08-25T12:27:02.230Z,99289.00
2022-08-25T12:28:52.862Z,99286.00
2022-08-25T12:30:40.052Z,99274.00
2022-08-25T12:32:45.952Z,99282.00
2022-08-25T12:34:53.462Z,99283.00
2022-08-25T12:36:31.611Z,99282.00
2022-08-25T12:38:13.614Z,99283.00
2022-08-25T12:39:59.449Z,99283.00
2022-08-25T12:41:33.749Z,99286.00
2022-08-25T12:43:26.697Z,99278.00
2022-08-25T12:45:33.209Z,99283.00
2022-08-25T12:47:29.723Z,99278.00
2022-08-25T12:49:12.476Z,99276.00
2022-08-25T12:50:50.548Z,99282.00
2022-08-25T12:52:28.146Z,99286.00
2022-08-25T12:54:19.012Z,99274.00
2022-08-25T12:56:02.742Z,99277.00
2022-08-25T12:57:44.629Z,99271.00
2022-08-25T12:59:22.763Z,99274.00
2022-08-25T13:01:36.172Z,99265.00
2022-08-25T13:06:05.710Z,99266.00
2022-08-25T13:08:15.128Z,99262.00
2022-08-25T13:10:29.468Z,99258.00
2022-08-25T13:12:17.275Z,99264.00
2022-08-25T13:14:01.480Z,99257.00
2022-08-25T13:15:41.902Z,99262.00
2022-08-25T13:17:27.988Z,99260.00
2022-08-25T13:19:07.932Z,99258.00
2022-08-25T13:20:44.006Z,99252.00
2022-08-25T13:22:20.796Z,99252.00
2022-08-25T13:24:01.268Z,99242.00
2022-08-25T13:25:49.259Z,99232.00
2022-08-25T13:27:28.315Z,99239.00
2022-08-25T13:29:17.873Z,99235.00
2022-08-25T13:31:06.342Z,99245.00
2022-08-25T13:32:39.855Z,99236.00
2022-08-25T13:34:23.156Z,99234.00
2022-08-25T13:36:26.275Z,99247.00
2022-08-25T13:38:15.534Z,99238.00
2022-08-25T13:39:56.512Z,99241.00
2022-08-25T13:41:30.302Z,99250.00
2022-08-25T13:43:12.240Z,99236.00
2022-08-25T13:44:52.385Z,99248.00
2022-08-25T13:46:28.816Z,99234.00
2022-08-25T13:48:05.899Z,99235.00
2022-08-25T13:49:43.035Z,99226.00
2022-08-25T13:51:25.412Z,99229.00
2022-08-25T13:53:11.692Z,99233.00
2022-08-25T13:54:48.069Z,99228.00
2022-08-25T13:56:38.445Z,99228.00
2022-08-25T13:58:24.620Z,99227.00
2022-08-25T14:00:14.156Z,99226.00
2022-08-25T14:01:50.814Z,99224.00
2022-08-25T14:03:34.424Z,99217.00
2022-08-25T14:05:09.588Z,99217.00
2022-08-25T14:06:44.383Z,99219.00
2022-08-25T14:08:34.719Z,99223.00
2022-08-25T14:10:12.129Z,99222.00
2022-08-25T14:11:50.120Z,99223.00
2022-08-25T14:13:33.683Z,99216.00
2022-08-25T14:15:26.974Z,99215.00
2022-08-25T14:17:16.409Z,99214.00
2022-08-25T14:19:01.822Z,99207.00
2022-08-25T14:20:37.839Z,99202.00
2022-08-25T14:22:11.219Z,99208.00
2022-08-25T14:23:46.148Z,99222.00
2022-08-25T14:25:19.623Z,99217.00
2022-08-25T14:26:54.887Z,99215.00
2022-08-25T14:28:32.238Z,99213.00
2022-08-25T14:30:07.484Z,99208.00
2022-08-25T14:31:44.843Z,99216.00
2022-08-25T14:33:24.324Z,99205.00
2022-08-25T14:34:57.805Z,99208.00
2022-08-25T14:36:34.304Z,99201.00
2022-08-25T14:38:12.135Z,99204.00
2022-08-25T14:39:46.929Z,99202.00
2022-08-25T14:41:21.744Z,99201.00
2022-08-25T14:42:55.148Z,99198.00
2022-08-25T14:44:28.439Z,99199.00
2022-08-25T14:46:08.239Z,99194.00
2022-08-25T14:47:42.559Z,99186.00
2022-08-25T14:49:24.841Z,99193.00
2022-08-25T14:51:01.066Z,99191.00
2022-08-25T14:52:35.370Z,99194.00
2022-08-25T14:54:14.783Z,99208.00
2022-08-25T14:55:53.651Z,99197.00
2022-08-25T14:57:32.732Z,99203.00
2022-08-25T14:59:06.275Z,99200.00
2022-08-25T15:00:45.565Z,99194.00
2022-08-25T15:02:30.497Z,99190.00
2022-08-25T15:04:12.658Z,99184.00
2022-08-25T15:05:50.793Z,99181.00
2022-08-25T15:07:44.302Z,99185.00
2022-08-25T15:09:18.845Z,99182.00
2022-08-25T15:10:52.303Z,99184.00
2022-08-25T15:12:46.070Z,99189.00
2022-08-25T15:14:29.057Z,99186.00
2022-08-25T15:16:09.710Z,99187.00
2022-08-25T15:17:47.635Z,99185.00
2022-08-25T15:19:26.937Z,99179.00
2022-08-25T15:21:02.988Z,99175.00
2022-08-25T15:22:36.890Z,99176.00
2022-08-25T15:24:17.575Z,99172.00
2022-08-25T15:25:54.663Z,99167.00
2022-08-25T15:27:30.906Z,99172.00
2022-08-25T15:29:04.875Z,99172.00
2022-08-25T15:30:41.033Z,99169.00
2022-08-25T15:32:16.299Z,99165.00
2022-08-25T15:33:52.111Z,99161.00
2022-08-25T15:35:27.682Z,99168.00
2022-08-25T15:37:12.133Z,99161.00
2022-08-25T15:38:46.200Z,99157.00
2022-08-25T15:40:20.474Z,99159.00
2022-08-25T15:41:54.122Z,99163.00
2022-08-25T15:43:27.433Z,99151.00
2022-08-25T15:45:01.123Z,99162.00
2022-08-25T15:46:37.435Z,99157.00
2022-08-25T15:48:11.599Z,99154.00
2022-08-25T15:49:45.227Z,99156.00
2022-08-25T15:51:18.937Z,99159.00
2022-08-25T15:52:53.950Z,99153.00
2022-08-25T15:54:29.090Z,99156.00
2022-08-25T15:56:06.984Z,99153.00
2022-08-25T15:57:40.972Z,99158.00
2022-08-25T15:59:15.961Z,99156.00
2022-08-25T16:00:56.405Z,99151.00
2022-08-25T16:02:32.464Z,99154.00
2022-08-25T16:04:06.015Z,99160.00
2022-08-25T16:05:47.893Z,99152.00
2022-08-25T16:07:22.323Z,99160.00
2022-08-25T16:08:57.559Z,99153.00
2022-08-25T16:10:35.195Z,99155.00
2022-08-25T16:12:10.188Z,99149.00
2022-08-25T16:13:43.803Z,99156.00
2022-08-25T16:15:17.539Z,99157.00
2022-08-25T16:16:52.521Z,99159.00
2022-08-25T16:18:26.034Z,99155.00
2022-08-25T16:20:01.223Z,99159.00
2022-08-25T16:21:42.200Z,99151.00
2022-08-25T16:23:21.947Z,99159.00
2022-08-25T16:24:56.659Z,99148.00
2022-08-25T16:26:31.812Z,99149.00
2022-08-25T16:28:05.707Z,99150.00
2022-08-25T16:29:40.945Z,99149.00
2022-08-25T16:31:17.070Z,99150.00
2022-08-25T16:32:50.774Z,99147.00
2022-08-25T16:34:28.714Z,99147.00
2022-08-25T16:36:09.940Z,99155.00
2022-08-25T16:37:43.299Z,99147.00
2022-08-25T16:39:16.906Z,99138.00
2022-08-25T16:40:51.819Z,99141.00
2022-08-25T16:42:26.233Z,99144.00
2022-08-25T16:43:59.527Z,99139.00
2022-08-25T16:45:32.971Z,99140.00
2022-08-25T16:47:08.753Z,99147.00
2022-08-25T16:48:43.767Z,99145.00
2022-08-25T16:50:18.107Z,99140.00
2022-08-25T16:51:56.996Z,99135.00
2022-08-25T16:53:48.768Z,99129.00
2022-08-25T16:55:22.067Z,99132.00
2022-08-25T16:56:58.382Z,99139.00
2022-08-25T16:58:33.001Z,99136.00
2022-08-25T17:00:10.700Z,99140.00
2022-08-25T17:01:44.981Z,99132.00
2022-08-25T17:03:19.566Z,99142.00
2022-08-25T17:04:53.040Z,99134.00
2022-08-25T17:06:34.505Z,99137.00
2022-08-25T17:08:25.812Z,99136.00
2022-08-25T17:09:59.503Z,99134.00
2022-08-25T17:11:36.303Z,99135.00
2022-08-25T17:13:12.774Z,99132.00
2022-08-25T17:14:47.314Z,99141.00
2022-08-25T17:16:24.763Z,99134.00
2022-08-25T17:17:58.445Z,99137.00
2022-08-25T17:19:32.865Z,99143.00
2022-08-25T17:21:09.442Z,99141.00
2022-08-25T17:22:44.327Z,99140.00
2022-08-25T17:24:18.118Z,99142.00
2022-08-25T17:25:52.392Z,99141.00
2022-08-25T17:27:25.955Z,99138.00
2022-08-25T17:29:02.323Z,99132.00
2022-08-25T17:30:38.950Z,99139.00
2022-08-25T17:32:12.903Z,99130.00
2022-08-25T17:33:48.640Z,99143.00
2022-08-25T17:35:22.822Z,99137.00
2022-08-25T17:36:56.887Z,99132.00
2022-08-25T17:38:33.364Z,99144.00
2022-08-25T17:40:08.816Z,99139.00
2022-08-25T17:41:45.048Z,99139.00
2022-08-25T17:43:18.411Z,99135.00
2022-08-25T17:44:53.227Z,99138.00
2022-08-25T17:46:26.737Z,99138.00
2022-08-25T17:48:01.114Z,99137.00
2022-08-25T17:49:34.790Z,99141.00
2022-08-25T17:51:09.921Z,99148.00
2022-08-25T17:52:43.356Z,99137.00
2022-08-25T17:54:18.005Z,99146.00
2022-08-25T17:56:01.397Z,99146.00
2022-08-25T17:57:34.699Z,99144.00
2022-08-25T17:59:09.634Z,99135.00
2022-08-25T18:00:46.257Z,99139.00
2022-08-25T18:02:20.655Z,99147.00
2022-08-25T18:03:54.639Z,99136.00
2022-08-25T18:05:29.622Z,99149.00
2022-08-25T18:07:03.159Z,99146.00
2022-08-25T18:08:36.813Z,99147.00
2022-08-25T18:10:12.572Z,99149.00
2022-08-25T18:11:46.081Z,99154.00
2022-08-25T18:13:20.419Z,99146.00
2022-08-25T18:14:54.334Z,99161.00
2022-08-25T18:16:31.415Z,99156.00
2022-08-25T18:18:05.146Z,99159.00
2022-08-25T18:19:40.218Z,99159.00
2022-08-25T18:21:16.391Z,99155.00
2022-08-25T18:22:50.451Z,99160.00
2022-08-25T18:24:24.437Z,99162.00
2022-08-25T18:26:00.905Z,99151.00
2022-08-25T18:27:36.060Z,99160.00
2022-08-25T18:29:12.059Z,99165.00
2022-08-25T18:30:46.232Z,99160.00
2022-08-25T18:32:22.847Z,99155.00
2022-08-25T18:33:59.506Z,99159.00
2022-08-25T18:35:33.759Z,99167.00
2022-08-25T18:37:21.055Z,99162.00
2022-08-25T18:39:13.648Z,99171.00
2022-08-25T18:40:47.147Z,99159.00
2022-08-25T18:42:20.667Z,99163.00
2022-08-25T18:43:54.779Z,99163.00
2022-08-25T18:45:32.477Z,99164.00
2022-08-25T18:47:07.872Z,99161.00
2022-08-25T18:48:42.637Z,99169.00
2022-08-25T18:50:16.659Z,99170.00
2022-08-25T18:51:53.608Z,99175.00
2022-08-25T18:53:30.585Z,99173.00
2022-08-25T18:55:12.314Z,99177.00
2022-08-25T18:56:46.496Z,99170.00
2022-08-25T18:58:20.335Z,99177.00
2022-08-25T18:59:54.439Z,99176.00
2022-08-25T19:01:28.823Z,99180.00
2022-08-25T19:03:04.885Z,99174.00
2022-08-25T19:04:40.415Z,99177.00
2022-08-25T19:06:15.708Z,99177.00
2022-08-25T19:07:51.788Z,99179.00
2022-08-25T19:09:25.351Z,99188.00
2022-08-25T19:10:58.678Z,99178.00
2022-08-25T19:12:32.967Z,99187.00
2022-08-25T19:14:12.573Z,99179.00
2022-08-25T19:15:47.907Z,99179.00
2022-08-25T19:17:24.663Z,99180.00
2022-08-25T19:18:58.527Z,99189.00
2022-08-25T19:20:34.688Z,99182.00
2022-08-25T19:22:16.565Z,99190.00
2022-08-25T19:24:03.081Z,99188.00